Sandberg, California
Current Conditions -  °F | °C
As of 12:48 AM on Wednesday 22 Oct 2014 (Local Time) from KSDB Reporting Station
Clear Clear  
Wind Chill: 51°   Ceiling: Unl
Heat Index: 51°   Visibility: 10mi
Dew Point: 40°   Wind: 24mph
Humidity: 66%   Direction: 330°NNW
Pressure: 30.05"   Gusts: 31mph
Location:  34.6849°N, 118.558°W
Report Text: KSDB 220748Z AUTO 33021G27KT 10SM CLR 11/04 A3005 RMK AO2 PK WND 33031/0701 SLP141 T01060044 401610083
Loading
Personal Weather Stations






























Interactive Weather Map New forecast layout! Learn more

10-Day Weather Forecast

Advertisements
Track Severe Weather on mobile